Time;durP1;ratioP1;P1;durP2;ratioP2;P2;SDS_P1;SDS_P2;PMS_P1;PMS_P2;Temp;Humidity;BMP_temperature;BMP_pressure;BME280_temperature;BME280_humidity;BME280_pressure;Samples;Min_cycle;Max_cycle;Signal;HPM_P1;HPM_P2
2021/07/09 00:02:56;;;;;;;13.35;9.60;;;13.90;92.60;;;;;;5018795;28;20400;-82
2021/07/09 00:05:22;;;;;;;16.88;8.30;;;13.90;92.30;;;;;;5015423;28;20026;-83
2021/07/09 00:07:48;;;;;;;16.20;9.32;;;13.90;92.30;;;;;;5023307;28;20059;-82
2021/07/09 00:10:14;;;;;;;13.70;9.35;;;13.90;92.40;;;;;;5017765;28;20422;-83
2021/07/09 00:12:40;;;;;;;14.15;9.70;;;13.90;92.50;;;;;;4998815;28;20040;-83
2021/07/09 00:15:06;;;;;;;12.70;8.77;;;13.80;92.50;;;;;;5003939;28;20021;-82
2021/07/09 00:17:32;;;;;;;14.30;8.25;;;13.80;92.60;;;;;;4998393;28;20038;-84
2021/07/09 00:19:57;;;;;;;11.68;7.97;;;13.70;92.60;;;;;;5030602;28;20022;-84
2021/07/09 00:22:23;;;;;;;10.93;7.50;;;13.70;92.30;;;;;;5004661;28;20041;-84
2021/07/09 00:24:49;;;;;;;14.75;9.57;;;13.80;92.20;;;;;;4996790;28;20026;-84
2021/07/09 00:27:15;;;;;;;13.32;8.77;;;13.70;92.60;;;;;;5007827;28;20033;-83
2021/07/09 00:29:41;;;;;;;10.45;7.72;;;13.70;92.40;;;;;;5015977;28;20026;-84
2021/07/09 00:32:07;;;;;;;13.13;8.77;;;13.80;91.90;;;;;;5014519;28;20319;-84
2021/07/09 00:34:33;;;;;;;10.70;7.22;;;13.80;92.20;;;;;;5014995;28;20373;-83
2021/07/09 00:36:58;;;;;;;13.15;9.40;;;13.80;92.10;;;;;;5015965;28;20022;-84
2021/07/09 00:39:24;;;;;;;10.25;6.97;;;13.80;92.10;;;;;;4998415;28;20075;-84
2021/07/09 00:41:50;;;;;;;12.18;8.25;;;13.80;92.10;;;;;;5015806;28;20084;-84
2021/07/09 00:44:15;;;;;;;12.45;8.50;;;13.80;92.30;;;;;;5024177;28;20348;-84
2021/07/09 00:46:42;;;;;;;12.50;9.20;;;13.80;92.30;;;;;;5034118;28;20030;-84
2021/07/09 00:49:10;;;;;;;13.70;9.05;;;13.80;92.20;;;;;;5001237;28;20025;-83
2021/07/09 00:51:36;;;;;;;14.07;8.48;;;13.80;92.20;;;;;;5025470;28;20032;-83
2021/07/09 00:54:02;;;;;;;14.82;7.70;;;13.70;92.20;;;;;;5002944;28;20180;-84
2021/07/09 00:56:28;;;;;;;12.52;8.05;;;13.70;92.00;;;;;;4998164;28;20022;-83
2021/07/09 00:58:54;;;;;;;11.02;6.57;;;13.70;92.20;;;;;;5016083;28;20037;-83
2021/07/09 01:01:20;;;;;;;9.35;6.22;;;13.70;92.10;;;;;;5001661;28;20029;-85
2021/07/09 01:03:46;;;;;;;10.93;6.30;;;13.70;92.30;;;;;;5023707;28;20081;-85
2021/07/09 01:06:13;;;;;;;10.98;6.95;;;13.70;92.80;;;;;;4998019;28;20034;-85
2021/07/09 01:08:39;;;;;;;10.40;5.90;;;13.60;92.80;;;;;;5004590;28;20117;-85
2021/07/09 01:11:05;;;;;;;10.02;6.43;;;13.60;93.60;;;;;;5016295;28;20104;-85
2021/07/09 01:13:31;;;;;;;10.00;6.43;;;13.60;93.30;;;;;;5027022;28;20037;-84
2021/07/09 01:15:56;;;;;;;9.15;6.15;;;13.60;93.40;;;;;;5023590;28;20018;-85
2021/07/09 01:18:22;;;;;;;9.18;6.63;;;13.60;93.60;;;;;;5015310;28;20028;-85
2021/07/09 01:20:48;;;;;;;9.07;6.00;;;13.60;93.70;;;;;;5015113;28;20034;-84
2021/07/09 01:23:18;;;;;;;12.25;7.13;;;13.60;93.80;;;;;;5015244;28;20048;-84
2021/07/09 01:25:46;;;;;;;8.98;5.90;;;13.60;94.20;;;;;;5009779;28;20044;-83
2021/07/09 01:28:12;;;;;;;12.82;6.80;;;13.50;94.00;;;;;;5016773;28;20021;-84
2021/07/09 01:30:38;;;;;;;7.32;5.25;;;13.50;94.10;;;;;;5021679;28;20095;-88
2021/07/09 01:33:04;;;;;;;8.85;6.38;;;13.50;94.00;;;;;;5014950;28;20411;-87
2021/07/09 01:35:31;;;;;;;10.45;5.82;;;13.50;94.30;;;;;;4996957;28;20077;-86
2021/07/09 01:38:08;;;;;;;12.57;6.25;;;13.50;94.30;;;;;;4997912;28;20292;-85
2021/07/09 01:40:36;;;;;;;7.85;5.25;;;13.50;94.20;;;;;;5018927;28;20057;-85
2021/07/09 01:43:02;;;;;;;9.82;6.28;;;13.50;94.30;;;;;;5001159;28;20431;-86
2021/07/09 01:45:28;;;;;;;8.63;6.20;;;13.50;94.30;;;;;;5036464;28;20406;-85
2021/07/09 01:47:55;;;;;;;10.68;6.38;;;13.50;94.30;;;;;;5011446;28;20060;-85
2021/07/09 01:50:23;;;;;;;9.05;6.85;;;13.50;94.60;;;;;;5001039;28;20423;-85
2021/07/09 01:52:48;;;;;;;7.63;5.47;;;13.50;94.60;;;;;;5001258;28;20036;-84
2021/07/09 01:55:15;;;;;;;7.00;5.38;;;13.50;94.30;;;;;;4999110;28;20289;-84
2021/07/09 01:57:42;;;;;;;8.25;5.60;;;13.50;94.50;;;;;;5014058;28;20363;-85
2021/07/09 02:00:10;;;;;;;8.32;5.72;;;13.50;94.40;;;;;;5016933;28;20026;-85
2021/07/09 02:02:37;;;;;;;10.07;6.72;;;13.50;94.80;;;;;;5005734;28;20308;-84
2021/07/09 02:05:06;;;;;;;9.10;5.63;;;13.50;94.80;;;;;;5018251;28;20331;-85
2021/07/09 02:07:32;;;;;;;7.30;5.70;;;13.50;94.50;;;;;;5000769;28;20407;-84
2021/07/09 02:09:58;;;;;;;10.32;6.35;;;13.50;95.10;;;;;;5021705;28;20028;-85
2021/07/09 02:12:25;;;;;;;8.45;5.65;;;13.50;95.00;;;;;;5013456;28;20017;-84
2021/07/09 02:14:52;;;;;;;10.57;5.40;;;13.50;95.30;;;;;;5030285;28;20083;-84
2021/07/09 02:17:20;;;;;;;9.45;5.68;;;13.40;95.30;;;;;;5018752;28;20318;-84
2021/07/09 02:19:48;;;;;;;9.38;5.85;;;13.40;95.40;;;;;;5019945;28;20022;-84
2021/07/09 02:22:15;;;;;;;11.38;5.88;;;13.40;95.80;;;;;;5019580;28;20042;-84
2021/07/09 02:24:43;;;;;;;6.82;4.85;;;13.40;95.80;;;;;;5000764;28;20030;-84
2021/07/09 02:27:09;;;;;;;7.03;4.80;;;13.30;95.90;;;;;;5018053;28;20128;-83
2021/07/09 02:29:36;;;;;;;6.35;4.80;;;13.30;96.60;;;;;;5017883;28;20029;-83
2021/07/09 02:32:04;;;;;;;9.45;5.10;;;13.30;97.30;;;;;;5019029;28;20038;-84
2021/07/09 02:34:31;;;;;;;7.85;5.10;;;13.30;97.10;;;;;;5021641;28;20021;-84
2021/07/09 02:36:58;;;;;;;7.70;5.45;;;13.30;97.00;;;;;;5026840;28;20116;-83
2021/07/09 02:39:25;;;;;;;9.32;5.80;;;13.30;96.90;;;;;;5019712;28;20421;-83
2021/07/09 02:41:55;;;;;;;10.45;5.65;;;13.30;96.50;;;;;;5001176;28;20038;-84
2021/07/09 02:44:22;;;;;;;8.15;5.28;;;13.20;96.30;;;;;;5020470;28;20109;-83
2021/07/09 02:46:49;;;;;;;7.78;5.28;;;13.20;96.20;;;;;;4999139;28;20116;-83
2021/07/09 02:49:14;;;;;;;9.27;5.60;;;13.20;96.00;;;;;;5017265;28;20029;-84
2021/07/09 02:51:41;;;;;;;9.68;5.63;;;13.20;96.50;;;;;;5020250;28;20022;-83
2021/07/09 02:54:07;;;;;;;10.68;6.00;;;13.20;96.10;;;;;;5016674;28;20021;-83
2021/07/09 02:56:33;;;;;;;8.23;5.43;;;13.20;96.20;;;;;;5017178;28;20382;-83
2021/07/09 02:58:59;;;;;;;9.00;5.72;;;13.20;96.30;;;;;;5013764;28;20025;-83
2021/07/09 03:01:26;;;;;;;9.50;5.43;;;13.10;96.20;;;;;;5019288;28;20048;-84
2021/07/09 03:03:52;;;;;;;8.70;5.90;;;13.10;96.30;;;;;;5016545;28;20038;-84
2021/07/09 03:06:19;;;;;;;10.63;6.53;;;13.10;96.60;;;;;;5017487;28;20080;-83
2021/07/09 03:08:45;;;;;;;8.55;6.30;;;13.10;96.90;;;;;;5018913;28;20038;-84
2021/07/09 03:11:11;;;;;;;12.65;7.20;;;13.10;96.80;;;;;;5029826;28;20041;-84
2021/07/09 03:13:36;;;;;;;9.07;6.70;;;13.10;97.00;;;;;;5018534;28;20030;-84
2021/07/09 03:16:02;;;;;;;10.35;7.57;;;13.00;97.30;;;;;;4997715;28;20022;-84
2021/07/09 03:18:28;;;;;;;13.38;7.18;;;13.10;97.10;;;;;;5018145;28;20029;-84
2021/07/09 03:20:56;;;;;;;12.45;8.10;;;13.00;97.30;;;;;;5016770;28;20038;-84
2021/07/09 03:23:23;;;;;;;10.38;7.47;;;13.00;97.20;;;;;;5016936;28;20053;-83
2021/07/09 03:25:49;;;;;;;9.35;7.32;;;13.00;97.20;;;;;;5017807;28;20064;-84
2021/07/09 03:28:15;;;;;;;13.85;7.47;;;13.10;97.40;;;;;;5018966;28;20069;-85
2021/07/09 03:30:42;;;;;;;10.63;7.40;;;13.00;97.40;;;;;;4998581;28;20029;-85
2021/07/09 03:33:09;;;;;;;13.50;7.90;;;13.00;97.40;;;;;;5015687;28;20029;-84
2021/07/09 03:35:35;;;;;;;12.32;7.88;;;13.00;97.60;;;;;;4998398;28;20359;-84
2021/07/09 03:38:00;;;;;;;11.70;8.68;;;13.00;97.70;;;;;;5016465;28;20034;-84
2021/07/09 03:40:26;;;;;;;10.18;7.60;;;13.00;97.80;;;;;;4998888;28;20128;-84
2021/07/09 03:42:51;;;;;;;12.65;8.32;;;13.00;97.90;;;;;;5016148;28;20029;-85
2021/07/09 03:45:19;;;;;;;11.98;9.25;;;13.00;97.90;;;;;;5013852;28;20157;-85
2021/07/09 03:47:45;;;;;;;12.00;8.98;;;13.00;97.60;;;;;;5015781;28;20028;-85
2021/07/09 03:50:12;;;;;;;10.30;8.40;;;13.00;97.50;;;;;;4993329;28;20030;-85
2021/07/09 03:52:38;;;;;;;12.38;9.55;;;13.00;97.40;;;;;;5003547;28;20066;-86
2021/07/09 03:55:06;;;;;;;11.93;8.18;;;13.00;97.20;;;;;;5015997;28;20053;-86
2021/07/09 03:57:31;;;;;;;13.48;7.78;;;13.00;97.10;;;;;;5015848;28;20041;-85
2021/07/09 03:59:57;;;;;;;12.07;7.07;;;13.00;97.50;;;;;;4998543;28;20026;-86
2021/07/09 04:02:22;;;;;;;12.05;7.13;;;13.00;98.00;;;;;;5013705;28;20080;-85
2021/07/09 04:04:48;;;;;;;10.30;6.78;;;13.00;98.00;;;;;;5014753;28;20034;-85
2021/07/09 04:07:14;;;;;;;10.57;7.25;;;12.90;98.00;;;;;;5016255;28;20092;-85
2021/07/09 04:09:39;;;;;;;9.13;5.80;;;12.90;98.00;;;;;;5015944;28;20390;-86
2021/07/09 04:12:05;;;;;;;15.90;6.75;;;12.90;98.00;;;;;;5016350;28;20021;-85
2021/07/09 04:14:31;;;;;;;9.23;6.82;;;12.90;98.00;;;;;;5014971;28;20030;-86
2021/07/09 04:16:57;;;;;;;10.88;6.80;;;12.90;98.00;;;;;;5014980;28;20018;-84
2021/07/09 04:19:22;;;;;;;9.60;6.82;;;12.90;98.00;;;;;;5015250;28;20057;-85
2021/07/09 04:21:51;;;;;;;14.73;7.10;;;12.90;98.00;;;;;;4997939;28;20042;-85
2021/07/09 04:24:16;;;;;;;9.30;6.05;;;12.90;98.00;;;;;;5014893;28;20107;-85
2021/07/09 04:26:42;;;;;;;9.98;6.70;;;12.90;98.00;;;;;;4998029;28;20423;-87
2021/07/09 04:29:08;;;;;;;10.88;7.20;;;12.90;98.00;;;;;;5015291;28;20037;-87
2021/07/09 04:31:34;;;;;;;11.27;5.65;;;12.90;98.00;;;;;;5012181;28;20032;-87
2021/07/09 04:34:00;;;;;;;9.63;6.63;;;12.90;97.80;;;;;;5002169;28;20037;-87
2021/07/09 04:36:25;;;;;;;9.57;6.78;;;12.90;97.80;;;;;;5014827;28;20022;-86
2021/07/09 04:38:54;;;;;;;10.60;6.93;;;12.90;97.90;;;;;;5016855;28;20036;-87
2021/07/09 04:41:20;;;;;;;11.68;6.10;;;12.90;97.90;;;;;;5014783;28;20462;-86
2021/07/09 04:43:46;;;;;;;8.77;5.70;;;12.90;97.80;;;;;;4996953;28;20168;-85
2021/07/09 04:46:11;;;;;;;9.02;6.32;;;12.90;98.00;;;;;;4995518;28;20125;-84
2021/07/09 04:48:37;;;;;;;13.27;6.65;;;12.90;97.90;;;;;;5014421;28;20105;-83
2021/07/09 04:51:03;;;;;;;8.88;6.82;;;12.90;97.60;;;;;;5013724;28;20026;-84
2021/07/09 04:53:33;;;;;;;10.18;6.50;;;12.90;97.60;;;;;;5010398;28;20347;-83
2021/07/09 04:56:01;;;;;;;9.27;6.18;;;13.00;97.90;;;;;;4996515;28;20461;-83
2021/07/09 04:58:26;;;;;;;11.52;5.88;;;12.90;97.50;;;;;;5015138;28;20045;-84
2021/07/09 05:00:52;;;;;;;16.20;6.30;;;13.00;97.40;;;;;;5012961;28;20018;-82
2021/07/09 05:03:17;;;;;;;12.05;6.25;;;13.00;97.50;;;;;;5013627;28;20076;-83
2021/07/09 05:05:43;;;;;;;9.45;6.15;;;13.00;97.60;;;;;;5015339;28;20724;-83
2021/07/09 05:08:09;;;;;;;9.15;6.07;;;13.00;97.70;;;;;;5010766;28;20038;-83
2021/07/09 05:10:35;;;;;;;9.68;5.53;;;13.00;97.80;;;;;;5015614;28;20415;-84
2021/07/09 05:13:04;;;;;;;9.43;6.20;;;13.00;97.90;;;;;;5014411;28;20037;-83
2021/07/09 05:15:30;;;;;;;8.35;6.25;;;13.00;97.60;;;;;;5014841;28;20033;-83
2021/07/09 05:17:55;;;;;;;10.88;6.32;;;12.90;97.50;;;;;;5019207;28;20026;-83
2021/07/09 05:20:23;;;;;;;10.18;5.43;;;12.90;97.50;;;;;;5002574;28;20030;-82
2021/07/09 05:22:48;;;;;;;12.80;7.10;;;12.90;97.60;;;;;;5000854;28;20508;-83
2021/07/09 05:25:14;;;;;;;9.48;5.80;;;12.90;97.50;;;;;;5019127;28;20113;-83
2021/07/09 05:27:40;;;;;;;13.13;6.28;;;13.00;97.50;;;;;;5019089;28;20105;-83
2021/07/09 05:30:06;;;;;;;8.27;5.60;;;13.00;97.80;;;;;;5018117;28;20030;-82
2021/07/09 05:32:33;;;;;;;11.60;6.70;;;13.00;97.60;;;;;;5018688;28;20040;-83
2021/07/09 05:34:59;;;;;;;10.20;6.60;;;13.00;97.70;;;;;;5019352;28;20068;-83
2021/07/09 05:37:26;;;;;;;9.30;6.25;;;13.00;97.30;;;;;;5001236;28;20478;-83
2021/07/09 05:39:52;;;;;;;11.80;6.40;;;13.00;97.30;;;;;;5019213;28;20080;-83
2021/07/09 05:42:17;;;;;;;10.23;6.85;;;13.00;97.30;;;;;;5018445;28;20061;-83
2021/07/09 05:44:43;;;;;;;12.02;6.13;;;13.00;97.10;;;;;;5018418;28;20034;-83
2021/07/09 05:47:13;;;;;;;10.48;5.97;;;13.00;97.10;;;;;;5000449;28;20113;-83
2021/07/09 05:49:39;;;;;;;11.90;6.55;;;13.00;97.10;;;;;;5018273;28;20423;-83
2021/07/09 05:52:06;;;;;;;10.75;6.60;;;13.10;97.10;;;;;;5018710;28;20415;-83
2021/07/09 05:54:32;;;;;;;9.52;6.00;;;13.10;97.00;;;;;;5018069;28;20035;-84
2021/07/09 05:56:58;;;;;;;8.98;6.00;;;13.10;96.80;;;;;;5018833;28;20407;-84
2021/07/09 05:59:24;;;;;;;12.25;6.57;;;13.10;97.00;;;;;;5018448;28;20025;-83
2021/07/09 06:01:49;;;;;;;9.18;6.28;;;13.10;97.40;;;;;;5017518;28;20025;-83
2021/07/09 06:04:15;;;;;;;13.27;7.03;;;13.20;97.30;;;;;;5017818;28;20034;-84
2021/07/09 06:06:41;;;;;;;10.88;5.88;;;13.20;97.60;;;;;;5017066;28;20445;-83
2021/07/09 06:09:07;;;;;;;8.98;5.88;;;13.20;97.90;;;;;;5018580;28;20029;-84
2021/07/09 06:11:33;;;;;;;11.45;6.10;;;13.20;97.80;;;;;;5018380;28;20128;-84
2021/07/09 06:13:59;;;;;;;9.98;6.30;;;13.20;97.90;;;;;;5000943;28;20129;-84
2021/07/09 06:16:24;;;;;;;8.45;5.20;;;13.20;97.70;;;;;;5017211;28;20048;-84
2021/07/09 06:18:50;;;;;;;8.18;6.05;;;13.20;97.90;;;;;;5018422;28;20097;-84
2021/07/09 06:21:17;;;;;;;12.00;6.20;;;13.30;98.00;;;;;;5018054;28;20045;-84
2021/07/09 06:23:42;;;;;;;14.65;5.95;;;13.30;97.90;;;;;;5018065;28;20030;-84
2021/07/09 06:26:08;;;;;;;7.88;5.95;;;13.30;97.90;;;;;;5017723;28;20117;-84
2021/07/09 06:28:34;;;;;;;8.52;5.75;;;13.40;98.00;;;;;;5018027;28;20160;-84
2021/07/09 06:31:00;;;;;;;8.90;6.07;;;13.40;98.00;;;;;;5016729;28;20109;-84
2021/07/09 06:33:26;;;;;;;7.63;5.22;;;13.50;98.00;;;;;;5000260;28;20037;-83
2021/07/09 06:35:51;;;;;;;12.82;6.28;;;13.50;98.00;;;;;;5000475;28;20038;-84
2021/07/09 06:38:17;;;;;;;9.80;6.60;;;13.50;98.00;;;;;;5017422;28;20046;-83
2021/07/09 06:40:44;;;;;;;8.27;6.00;;;13.60;98.00;;;;;;5017816;28;20065;-83
2021/07/09 06:43:11;;;;;;;9.85;6.40;;;13.70;98.00;;;;;;5000561;28;20041;-83
2021/07/09 06:45:40;;;;;;;9.43;5.22;;;13.70;98.00;;;;;;5016846;28;20108;-83
2021/07/09 06:48:07;;;;;;;10.55;6.30;;;13.70;98.00;;;;;;5017021;28;20100;-83
2021/07/09 06:50:34;;;;;;;9.18;5.45;;;13.70;98.00;;;;;;5017173;28;20444;-83
2021/07/09 06:53:00;;;;;;;8.40;5.40;;;13.70;98.00;;;;;;5017109;28;20419;-83
2021/07/09 06:55:25;;;;;;;8.45;5.30;;;13.70;98.00;;;;;;5000446;28;20044;-83
2021/07/09 06:57:51;;;;;;;10.73;5.95;;;13.70;98.00;;;;;;5017243;28;20530;-83
2021/07/09 07:00:18;;;;;;;7.75;5.30;;;13.80;98.00;;;;;;5016523;28;20379;-83
2021/07/09 07:02:45;;;;;;;8.20;5.40;;;13.80;98.00;;;;;;4999934;28;20033;-83
2021/07/09 07:05:12;;;;;;;8.60;5.35;;;13.90;98.00;;;;;;5017578;28;20028;-83
2021/07/09 07:07:37;;;;;;;7.68;4.95;;;14.20;98.00;;;;;;5017018;28;20029;-83
2021/07/09 07:10:05;;;;;;;8.75;4.82;;;14.40;98.00;;;;;;5016792;28;20022;-83
2021/07/09 07:12:30;;;;;;;6.53;4.38;;;14.50;98.00;;;;;;5017275;28;20073;-82
2021/07/09 07:14:56;;;;;;;7.50;4.60;;;14.60;98.00;;;;;;4999826;28;20025;-82
2021/07/09 07:17:22;;;;;;;9.18;5.45;;;14.70;98.00;;;;;;4998636;28;20026;-82
2021/07/09 07:19:47;;;;;;;9.73;4.82;;;14.80;98.00;;;;;;5017232;28;20028;-82
2021/07/09 07:22:13;;;;;;;10.68;4.88;;;14.90;98.00;;;;;;5017015;28;20130;-85
2021/07/09 07:24:39;;;;;;;8.77;5.18;;;15.10;98.00;;;;;;5017032;28;20041;-83
2021/07/09 07:27:05;;;;;;;7.05;4.82;;;15.10;98.00;;;;;;5015746;28;20022;-83
2021/07/09 07:29:31;;;;;;;9.18;4.95;;;15.20;98.00;;;;;;4999810;28;20446;-83
2021/07/09 07:31:56;;;;;;;9.10;4.85;;;15.50;98.00;;;;;;5015838;28;20030;-83
2021/07/09 07:34:22;;;;;;;8.75;4.45;;;15.70;98.00;;;;;;5016817;28;20033;-83
2021/07/09 07:36:48;;;;;;;7.85;5.07;;;15.80;98.00;;;;;;5016582;28;20026;-83
2021/07/09 07:39:14;;;;;;;9.68;4.57;;;15.80;97.90;;;;;;4996905;28;20102;-83
2021/07/09 07:41:41;;;;;;;7.90;4.80;;;16.00;98.00;;;;;;4997419;28;20048;-83
2021/07/09 07:44:06;;;;;;;8.13;3.88;;;16.30;97.80;;;;;;4997238;28;20026;-82
2021/07/09 07:46:32;;;;;;;10.10;5.40;;;16.50;97.80;;;;;;5014316;28;20064;-82
2021/07/09 07:48:58;;;;;;;9.75;4.78;;;16.50;97.20;;;;;;5016551;28;20034;-82
2021/07/09 07:51:24;;;;;;;7.07;4.35;;;16.70;97.70;;;;;;5016170;28;20038;-83
2021/07/09 07:53:52;;;;;;;24.17;17.92;;;16.80;96.90;;;;;;5016405;28;20080;-82
2021/07/09 07:56:18;;;;;;;10.32;5.60;;;16.70;97.20;;;;;;5016680;28;20080;-81
2021/07/09 07:58:45;;;;;;;9.05;4.45;;;16.80;98.00;;;;;;5016150;28;20080;-82
2021/07/09 08:01:11;;;;;;;8.95;4.40;;;16.70;96.90;;;;;;5015433;28;20101;-82
2021/07/09 08:03:37;;;;;;;6.05;4.28;;;16.50;97.20;;;;;;5016067;28;20418;-83
2021/07/09 08:06:04;;;;;;;7.15;3.90;;;16.40;97.20;;;;;;5016707;28;20025;-82
2021/07/09 08:08:30;;;;;;;17.92;4.75;;;16.70;97.30;;;;;;4998632;28;20485;-82
2021/07/09 08:10:56;;;;;;;8.27;4.60;;;17.10;98.00;;;;;;5016114;28;20029;-83
2021/07/09 08:13:22;;;;;;;9.73;4.72;;;17.30;95.80;;;;;;4998807;28;20026;-83
2021/07/09 08:15:48;;;;;;;7.43;4.80;;;17.30;94.90;;;;;;4997311;28;20370;-83
2021/07/09 08:18:13;;;;;;;7.07;4.47;;;17.30;95.50;;;;;;5016174;28;20033;-83
2021/07/09 08:20:40;;;;;;;6.80;3.75;;;17.30;95.90;;;;;;5015416;28;20036;-83
2021/07/09 08:23:05;;;;;;;6.95;3.80;;;17.80;95.80;;;;;;5015433;28;20034;-82
2021/07/09 08:25:31;;;;;;;6.40;4.35;;;18.00;93.90;;;;;;5016114;28;20111;-82
2021/07/09 08:27:57;;;;;;;6.78;4.55;;;17.80;95.00;;;;;;5015923;28;20036;-82
2021/07/09 08:30:23;;;;;;;8.48;4.35;;;17.80;94.50;;;;;;5014509;28;20022;-83
2021/07/09 08:32:48;;;;;;;6.13;4.15;;;17.90;94.00;;;;;;5016032;28;20157;-83
2021/07/09 08:35:14;;;;;;;5.95;3.70;;;18.20;94.50;;;;;;5016045;28;20370;-82
2021/07/09 08:37:41;;;;;;;7.90;3.90;;;18.90;92.60;;;;;;5016011;28;20034;-83
2021/07/09 08:40:08;;;;;;;8.10;3.65;;;18.90;92.30;;;;;;5015392;28;20065;-83
2021/07/09 08:42:35;;;;;;;6.25;3.80;;;19.00;92.40;;;;;;5016002;28;20034;-82
2021/07/09 08:45:01;;;;;;;7.72;3.95;;;18.70;92.70;;;;;;5014774;28;20034;-84
2021/07/09 08:47:29;;;;;;;6.53;3.80;;;18.40;94.30;;;;;;5015317;28;20029;-83
2021/07/09 08:49:55;;;;;;;6.95;3.92;;;18.30;92.80;;;;;;5015750;28;20077;-82
2021/07/09 08:52:20;;;;;;;8.43;4.30;;;18.10;93.30;;;;;;5019204;28;20018;-83
2021/07/09 08:54:49;;;;;;;7.13;4.30;;;18.20;93.70;;;;;;5019254;28;20018;-83
2021/07/09 08:57:17;;;;;;;8.77;4.72;;;18.20;93.80;;;;;;5019281;28;20041;-83
2021/07/09 08:59:43;;;;;;;7.80;3.97;;;18.10;94.10;;;;;;5019341;28;20052;-82
2021/07/09 09:02:08;;;;;;;6.75;3.95;;;17.90;93.60;;;;;;5018570;28;20407;-83
2021/07/09 09:04:36;;;;;;;6.88;3.50;;;18.30;94.40;;;;;;5019514;28;20087;-84
2021/07/09 09:07:09;;;;;;;5.68;3.67;;;19.70;92.40;;;;;;5019948;28;20056;-84
2021/07/09 09:09:40;;;;;;;11.73;3.85;;;21.70;85.70;;;;;;5018803;28;20033;-84
2021/07/09 09:12:14;;;;;;;7.00;4.18;;;21.70;83.40;;;;;;5002408;28;20478;-84
2021/07/09 09:14:47;;;;;;;7.00;3.40;;;21.70;84.40;;;;;;5018597;28;20033;-83
2021/07/09 09:17:42;;;;;;;5.38;3.65;;;21.90;82.60;;;;;;4999982;28;20370;-83
2021/07/09 09:20:10;;;;;;;6.90;4.03;;;20.70;84.50;;;;;;4992609;28;20073;-84
2021/07/09 09:22:52;;;;;;;7.85;3.70;;;19.80;87.30;;;;;;5018208;28;20037;-84
2021/07/09 09:25:27;;;;;;;5.43;3.30;;;20.00;88.60;;;;;;5018118;28;20050;-85
2021/07/09 09:28:12;;;;;;;5.90;3.55;;;21.60;84.50;;;;;;5000479;28;20021;-85
2021/07/09 09:30:41;;;;;;;7.40;3.92;;;22.00;83.00;;;;;;4999165;28;20075;-83
2021/07/09 09:33:09;;;;;;;6.18;3.38;;;22.80;79.00;;;;;;5018049;28;20104;-85
2021/07/09 09:35:38;;;;;;;5.65;3.25;;;23.00;80.60;;;;;;5016789;28;20030;-84
2021/07/09 09:38:15;;;;;;;6.53;3.30;;;21.90;83.10;;;;;;5017498;28;20105;-84
2021/07/09 09:40:43;;;;;;;7.75;3.47;;;21.90;82.80;;;;;;5009482;28;20093;-84
2021/07/09 09:43:15;;;;;;;5.65;3.58;;;21.40;83.90;;;;;;5017283;28;20157;-85
2021/07/09 09:45:42;;;;;;;9.00;3.95;;;20.80;84.50;;;;;;5015739;28;20018;-85
2021/07/09 09:48:13;;;;;;;6.13;3.42;;;20.60;85.60;;;;;;5017765;28;20022;-86
2021/07/09 09:50:47;;;;;;;5.43;3.50;;;20.10;86.80;;;;;;5000282;28;20026;-85
2021/07/09 09:53:13;;;;;;;;;;;20.00;86.60;;;;;;5000442;28;20037;-85
2021/07/09 09:55:39;;;;;;;6.20;3.72;;;20.50;86.60;;;;;;5017866;28;20067;-85
2021/07/09 09:58:18;;;;;;;7.50;3.83;;;21.30;84.00;;;;;;5017038;28;20067;-85
2021/07/09 10:00:48;;;;;;;6.50;3.63;;;22.10;82.30;;;;;;4998598;28;20022;-86
2021/07/09 10:03:16;;;;;;;6.75;3.53;;;22.40;80.40;;;;;;5016849;28;20029;-86
2021/07/09 10:05:43;;;;;;;6.55;3.80;;;21.80;81.70;;;;;;5017481;28;20022;-86
2021/07/09 10:08:24;;;;;;;9.00;4.55;;;21.10;83.90;;;;;;5000035;28;20034;-86
2021/07/09 10:10:53;;;;;;;6.55;4.40;;;20.50;86.00;;;;;;5017181;28;20092;-85
2021/07/09 10:13:23;;;;;;;8.27;4.18;;;20.80;85.20;;;;;;5016319;28;20117;-84
2021/07/09 10:15:51;;;;;;;5.00;3.88;;;21.20;84.00;;;;;;5015544;28;20362;-87
2021/07/09 10:18:20;;;;;;;7.93;4.47;;;21.30;81.70;;;;;;5016580;28;20026;-88
2021/07/09 10:20:47;;;;;;;8.10;4.38;;;20.40;84.20;;;;;;4972080;28;1152579;-86
2021/07/09 10:23:15;;;;;;;6.47;4.20;;;19.40;87.10;;;;;;5003599;28;20431;-85
2021/07/09 10:25:45;;;;;;;6.63;4.28;;;19.40;88.70;;;;;;5018356;28;20026;-85
2021/07/09 10:28:11;;;;;;;9.85;4.03;;;19.50;87.60;;;;;;5000573;28;20026;-85
2021/07/09 10:30:39;;;;;;;5.03;3.42;;;20.70;86.40;;;;;;5016575;28;20029;-86
2021/07/09 10:33:37;;;;;;;8.55;5.00;;;21.60;84.70;;;;;;5017822;28;20123;-84
2021/07/09 10:36:08;;;;;;;8.27;4.68;;;21.60;82.50;;;;;;4985167;28;20042;-85
2021/07/09 10:38:40;;;;;;;7.32;3.95;;;20.90;82.60;;;;;;5000285;28;20022;-84
2021/07/09 10:41:17;;;;;;;7.15;4.50;;;21.80;82.00;;;;;;5017628;28;20034;-85
2021/07/09 10:44:02;;;;;;;6.35;4.25;;;22.00;79.90;;;;;;5017121;28;20061;-85
2021/07/09 10:46:34;;;;;;;5.18;3.70;;;21.50;81.00;;;;;;4999261;28;20037;-84
2021/07/09 10:49:00;;;;;;;7.47;4.25;;;21.70;81.20;;;;;;4999761;28;20315;-86
2021/07/09 10:51:52;;;;;;;8.75;4.20;;;22.00;78.40;;;;;;5017287;28;20055;-85
2021/07/09 10:54:29;;;;;;;6.65;3.83;;;21.30;79.20;;;;;;4999845;28;20034;-85
2021/07/09 10:57:20;;;;;;;7.28;3.72;;;21.50;82.20;;;;;;5000478;28;20022;-84
2021/07/09 11:00:23;;;;;;;7.32;4.40;;;22.10;78.80;;;;;;5017510;28;20025;-84
2021/07/09 11:03:02;;;;;;;7.25;4.65;;;21.50;81.00;;;;;;5000179;28;20026;-86
2021/07/09 11:05:43;;;;;;;7.78;4.00;;;20.70;83.60;;;;;;5017686;28;20092;-86
2021/07/09 11:08:34;;;;;;;6.10;4.30;;;20.70;84.00;;;;;;5017300;28;20030;-85
2021/07/09 11:11:00;;;;;;;6.75;3.90;;;21.10;81.20;;;;;;5017139;28;20422;-87
2021/07/09 11:13:41;;;;;;;7.63;4.03;;;21.90;79.30;;;;;;4998560;28;20030;-86
2021/07/09 11:16:27;;;;;;;7.25;3.80;;;22.80;77.30;;;;;;5015744;28;20033;-86
2021/07/09 11:19:02;;;;;;;7.38;4.05;;;23.20;75.80;;;;;;5017232;28;20026;-88
2021/07/09 11:21:33;;;;;;;7.00;3.85;;;23.60;73.90;;;;;;5016371;28;20069;-88
2021/07/09 11:24:11;;;;;;;8.00;3.75;;;23.40;74.30;;;;;;5017379;28;20029;-88
2021/07/09 11:26:42;;;;;;;6.35;3.92;;;23.30;74.70;;;;;;4999526;28;20359;-87
2021/07/09 11:29:35;;;;;;;6.10;3.53;;;22.90;76.10;;;;;;4999652;28;20029;-88
2021/07/09 11:32:10;;;;;;;6.53;3.50;;;23.00;76.60;;;;;;5015315;28;20028;-86
2021/07/09 11:34:43;;;;;;;5.85;3.35;;;22.60;75.40;;;;;;5017130;28;20473;-88
2021/07/09 11:37:10;;;;;;;4.85;3.03;;;22.90;76.20;;;;;;5016895;28;20044;-88
2021/07/09 11:39:41;;;;;;;4.40;2.88;;;23.60;71.00;;;;;;4999541;28;20026;-86
2021/07/09 11:42:11;;;;;;;4.43;3.03;;;23.80;70.80;;;;;;4999174;28;20026;-88
2021/07/09 11:44:59;;;;;;;6.30;3.30;;;23.70;71.70;;;;;;5016529;28;20044;-86
2021/07/09 11:47:30;;;;;;;5.32;2.83;;;23.80;70.70;;;;;;5004100;28;20030;-87
2021/07/09 11:50:03;;;;;;;7.45;3.40;;;23.50;70.90;;;;;;5013031;28;20057;-88
2021/07/09 11:52:33;;;;;;;4.80;2.80;;;23.60;72.50;;;;;;5015557;28;20370;-88
2021/07/09 11:55:06;;;;;;;4.65;2.90;;;23.80;72.70;;;;;;4998874;28;20092;-87
2021/07/09 11:57:35;;;;;;;5.05;2.70;;;23.70;70.90;;;;;;5016660;28;20029;-88
2021/07/09 12:00:07;;;;;;;5.93;2.83;;;23.40;73.20;;;;;;5014998;28;20030;-88
2021/07/09 12:02:34;;;;;;;5.47;3.15;;;24.20;70.70;;;;;;4984206;28;20435;-88
2021/07/09 12:05:06;;;;;;;5.18;2.92;;;24.10;71.90;;;;;;5016560;28;20029;-87
2021/07/09 12:07:33;;;;;;;4.90;2.63;;;24.40;71.10;;;;;;5016071;28;20342;-88
2021/07/09 12:10:04;;;;;;;4.90;2.58;;;24.80;69.90;;;;;;5015293;28;20080;-88
2021/07/09 12:12:33;;;;;;;4.60;2.72;;;24.70;68.70;;;;;;5015721;28;20021;-88
2021/07/09 12:15:05;;;;;;;5.47;2.58;;;24.30;70.70;;;;;;4990748;28;20026;-88
2021/07/09 12:17:35;;;;;;;5.93;2.97;;;24.50;70.20;;;;;;5014560;28;20029;-89
2021/07/09 12:20:04;;;;;;;4.43;2.55;;;24.10;70.90;;;;;;5015419;28;20025;-89
2021/07/09 12:22:36;;;;;;;4.00;2.55;;;23.90;70.50;;;;;;4998412;28;20046;-90
2021/07/09 12:25:07;;;;;;;6.70;3.10;;;24.20;73.90;;;;;;5015924;28;20032;-89
2021/07/09 12:27:35;;;;;;;5.38;2.88;;;24.50;68.70;;;;;;5016097;28;20026;-89
2021/07/09 12:30:16;;;;;;;5.25;2.60;;;23.90;72.70;;;;;;5014221;28;20033;-87
2021/07/09 12:33:03;;;;;;;4.53;2.90;;;23.30;74.20;;;;;;5012666;28;20060;-89
2021/07/09 12:35:32;;;;;;;4.50;2.70;;;23.20;74.30;;;;;;5014604;28;20030;-89
2021/07/09 12:38:02;;;;;;;4.75;2.80;;;24.30;72.40;;;;;;4997311;28;20029;-90
2021/07/09 12:40:31;;;;;;;6.22;2.70;;;25.10;70.30;;;;;;4997165;28;20319;-87
2021/07/09 12:43:18;;;;;;;10.02;3.00;;;25.80;67.00;;;;;;5014342;28;20030;-89
2021/07/09 12:45:59;;;;;;;4.85;2.70;;;25.70;66.90;;;;;;5011275;28;20022;-89
2021/07/09 12:48:46;;;;;;;5.32;2.72;;;25.00;68.00;;;;;;4996950;28;20034;-88
2021/07/09 12:51:16;;;;;;;6.38;2.70;;;22.80;73.20;;;;;;5013992;28;20018;-86